sensor_id;sensor_type;location;lat;lon;timestamp;P1;durP1;ratioP1;P2;durP2;ratioP2
16173;SDS011;14031;50.158;8.626;2022-08-19T00:01:30;17.42;;;12.48;;
16173;SDS011;14031;50.158;8.626;2022-08-19T00:03:58;14.48;;;12.13;;
16173;SDS011;14031;50.158;8.626;2022-08-19T00:06:27;12.57;;;11.60;;
16173;SDS011;14031;50.158;8.626;2022-08-19T00:08:55;13.65;;;12.25;;
16173;SDS011;14031;50.158;8.626;2022-08-19T00:11:26;14.38;;;12.93;;
16173;SDS011;14031;50.158;8.626;2022-08-19T00:13:53;14.70;;;13.18;;
16173;SDS011;14031;50.158;8.626;2022-08-19T00:16:21;12.98;;;11.68;;
16173;SDS011;14031;50.158;8.626;2022-08-19T00:18:48;12.95;;;11.85;;
16173;SDS011;14031;50.158;8.626;2022-08-19T00:21:15;16.77;;;12.80;;
16173;SDS011;14031;50.158;8.626;2022-08-19T00:23:43;13.73;;;12.50;;
16173;SDS011;14031;50.158;8.626;2022-08-19T00:26:10;13.40;;;12.30;;
16173;SDS011;14031;50.158;8.626;2022-08-19T00:28:39;13.70;;;12.40;;
16173;SDS011;14031;50.158;8.626;2022-08-19T00:31:07;12.82;;;11.68;;
16173;SDS011;14031;50.158;8.626;2022-08-19T00:33:35;13.32;;;12.13;;
16173;SDS011;14031;50.158;8.626;2022-08-19T00:36:02;13.45;;;12.05;;
16173;SDS011;14031;50.158;8.626;2022-08-19T00:38:31;12.60;;;11.50;;
16173;SDS011;14031;50.158;8.626;2022-08-19T00:40:58;12.80;;;11.60;;
16173;SDS011;14031;50.158;8.626;2022-08-19T00:43:26;13.43;;;12.02;;
16173;SDS011;14031;50.158;8.626;2022-08-19T00:45:55;11.30;;;10.40;;
16173;SDS011;14031;50.158;8.626;2022-08-19T00:48:22;12.35;;;11.15;;
16173;SDS011;14031;50.158;8.626;2022-08-19T00:50:50;11.50;;;10.52;;
16173;SDS011;14031;50.158;8.626;2022-08-19T00:53:19;12.15;;;10.95;;
16173;SDS011;14031;50.158;8.626;2022-08-19T00:55:50;12.30;;;11.30;;
16173;SDS011;14031;50.158;8.626;2022-08-19T00:58:20;12.52;;;11.32;;
16173;SDS011;14031;50.158;8.626;2022-08-19T01:00:48;11.80;;;10.68;;
16173;SDS011;14031;50.158;8.626;2022-08-19T01:03:18;12.13;;;10.93;;
16173;SDS011;14031;50.158;8.626;2022-08-19T01:05:46;13.15;;;11.80;;
16173;SDS011;14031;50.158;8.626;2022-08-19T01:08:16;12.02;;;10.98;;
16173;SDS011;14031;50.158;8.626;2022-08-19T01:10:45;12.02;;;10.90;;
16173;SDS011;14031;50.158;8.626;2022-08-19T01:13:15;12.90;;;10.60;;
16173;SDS011;14031;50.158;8.626;2022-08-19T01:15:43;12.15;;;11.13;;
16173;SDS011;14031;50.158;8.626;2022-08-19T01:18:13;11.20;;;10.30;;
16173;SDS011;14031;50.158;8.626;2022-08-19T01:20:43;14.43;;;11.23;;
16173;SDS011;14031;50.158;8.626;2022-08-19T01:23:13;12.00;;;10.80;;
16173;SDS011;14031;50.158;8.626;2022-08-19T01:25:42;11.60;;;10.70;;
16173;SDS011;14031;50.158;8.626;2022-08-19T01:28:14;11.43;;;10.52;;
16173;SDS011;14031;50.158;8.626;2022-08-19T01:30:43;11.75;;;10.65;;
16173;SDS011;14031;50.158;8.626;2022-08-19T01:33:11;11.35;;;10.50;;
16173;SDS011;14031;50.158;8.626;2022-08-19T01:35:38;12.55;;;11.15;;
16173;SDS011;14031;50.158;8.626;2022-08-19T01:38:07;12.48;;;10.45;;
16173;SDS011;14031;50.158;8.626;2022-08-19T01:40:38;10.68;;;9.82;;
16173;SDS011;14031;50.158;8.626;2022-08-19T01:43:07;12.05;;;11.05;;
16173;SDS011;14031;50.158;8.626;2022-08-19T01:45:34;11.55;;;10.55;;
16173;SDS011;14031;50.158;8.626;2022-08-19T01:48:03;10.65;;;9.77;;
16173;SDS011;14031;50.158;8.626;2022-08-19T01:50:30;10.60;;;9.63;;
16173;SDS011;14031;50.158;8.626;2022-08-19T01:52:58;12.90;;;10.60;;
16173;SDS011;14031;50.158;8.626;2022-08-19T01:55:25;11.20;;;10.32;;
16173;SDS011;14031;50.158;8.626;2022-08-19T01:57:54;11.43;;;9.80;;
16173;SDS011;14031;50.158;8.626;2022-08-19T02:00:25;11.55;;;10.60;;
16173;SDS011;14031;50.158;8.626;2022-08-19T02:02:55;10.07;;;9.35;;
16173;SDS011;14031;50.158;8.626;2022-08-19T02:05:22;10.48;;;9.25;;
16173;SDS011;14031;50.158;8.626;2022-08-19T02:07:49;10.65;;;9.80;;
16173;SDS011;14031;50.158;8.626;2022-08-19T02:10:18;11.05;;;9.95;;
16173;SDS011;14031;50.158;8.626;2022-08-19T02:12:47;11.18;;;10.25;;
16173;SDS011;14031;50.158;8.626;2022-08-19T02:15:16;12.35;;;10.00;;
16173;SDS011;14031;50.158;8.626;2022-08-19T02:17:45;10.00;;;9.10;;
16173;SDS011;14031;50.158;8.626;2022-08-19T02:20:12;10.68;;;9.77;;
16173;SDS011;14031;50.158;8.626;2022-08-19T02:22:40;10.00;;;9.02;;
16173;SDS011;14031;50.158;8.626;2022-08-19T02:25:08;10.93;;;10.10;;
16173;SDS011;14031;50.158;8.626;2022-08-19T02:27:36;10.80;;;9.80;;
16173;SDS011;14031;50.158;8.626;2022-08-19T02:30:04;9.60;;;8.88;;
16173;SDS011;14031;50.158;8.626;2022-08-19T02:32:33;10.32;;;9.52;;
16173;SDS011;14031;50.158;8.626;2022-08-19T02:35:00;10.25;;;9.35;;
16173;SDS011;14031;50.158;8.626;2022-08-19T02:37:28;10.07;;;9.00;;
16173;SDS011;14031;50.158;8.626;2022-08-19T02:40:12;9.90;;;9.10;;
16173;SDS011;14031;50.158;8.626;2022-08-19T02:42:40;9.95;;;8.95;;
16173;SDS011;14031;50.158;8.626;2022-08-19T02:45:08;8.65;;;8.00;;
16173;SDS011;14031;50.158;8.626;2022-08-19T02:47:38;8.38;;;7.78;;
16173;SDS011;14031;50.158;8.626;2022-08-19T02:50:05;9.80;;;8.48;;
16173;SDS011;14031;50.158;8.626;2022-08-19T02:52:32;9.35;;;8.55;;
16173;SDS011;14031;50.158;8.626;2022-08-19T02:55:04;9.25;;;8.55;;
16173;SDS011;14031;50.158;8.626;2022-08-19T02:57:32;8.88;;;8.07;;
16173;SDS011;14031;50.158;8.626;2022-08-19T02:59:59;9.23;;;8.52;;
16173;SDS011;14031;50.158;8.626;2022-08-19T03:02:28;9.52;;;8.40;;
16173;SDS011;14031;50.158;8.626;2022-08-19T03:04:56;9.07;;;8.55;;
16173;SDS011;14031;50.158;8.626;2022-08-19T03:07:23;8.82;;;8.20;;
16173;SDS011;14031;50.158;8.626;2022-08-19T03:09:50;9.50;;;8.70;;
16173;SDS011;14031;50.158;8.626;2022-08-19T03:12:17;8.85;;;8.07;;
16173;SDS011;14031;50.158;8.626;2022-08-19T03:14:44;9.23;;;8.40;;
16173;SDS011;14031;50.158;8.626;2022-08-19T03:17:11;8.65;;;7.90;;
16173;SDS011;14031;50.158;8.626;2022-08-19T03:19:38;8.40;;;7.80;;
16173;SDS011;14031;50.158;8.626;2022-08-19T03:22:07;8.13;;;7.43;;
16173;SDS011;14031;50.158;8.626;2022-08-19T03:24:33;9.43;;;8.23;;
16173;SDS011;14031;50.158;8.626;2022-08-19T03:27:03;9.55;;;8.75;;
16173;SDS011;14031;50.158;8.626;2022-08-19T03:29:30;9.20;;;8.30;;
16173;SDS011;14031;50.158;8.626;2022-08-19T03:31:58;9.52;;;8.73;;
16173;SDS011;14031;50.158;8.626;2022-08-19T03:34:27;8.82;;;8.10;;
16173;SDS011;14031;50.158;8.626;2022-08-19T03:36:56;9.27;;;8.38;;
16173;SDS011;14031;50.158;8.626;2022-08-19T03:39:26;8.77;;;8.13;;
16173;SDS011;14031;50.158;8.626;2022-08-19T03:41:54;9.30;;;8.40;;
16173;SDS011;14031;50.158;8.626;2022-08-19T03:44:25;9.13;;;8.43;;
16173;SDS011;14031;50.158;8.626;2022-08-19T03:46:52;8.88;;;8.10;;
16173;SDS011;14031;50.158;8.626;2022-08-19T03:49:20;8.82;;;8.32;;
16173;SDS011;14031;50.158;8.626;2022-08-19T03:51:49;9.35;;;8.65;;
16173;SDS011;14031;50.158;8.626;2022-08-19T03:54:17;9.27;;;8.52;;
16173;SDS011;14031;50.158;8.626;2022-08-19T03:56:47;9.27;;;8.30;;
16173;SDS011;14031;50.158;8.626;2022-08-19T03:59:19;9.45;;;8.57;;
16173;SDS011;14031;50.158;8.626;2022-08-19T04:01:50;9.40;;;8.57;;
16173;SDS011;14031;50.158;8.626;2022-08-19T04:04:16;8.93;;;8.13;;
16173;SDS011;14031;50.158;8.626;2022-08-19T04:06:43;8.65;;;7.93;;
16173;SDS011;14031;50.158;8.626;2022-08-19T04:09:12;10.05;;;9.13;;
16173;SDS011;14031;50.158;8.626;2022-08-19T04:11:40;8.20;;;7.60;;
16173;SDS011;14031;50.158;8.626;2022-08-19T04:14:10;8.57;;;7.93;;
16173;SDS011;14031;50.158;8.626;2022-08-19T04:16:45;9.48;;;8.52;;
16173;SDS011;14031;50.158;8.626;2022-08-19T04:19:13;9.40;;;8.60;;
16173;SDS011;14031;50.158;8.626;2022-08-19T04:21:42;9.20;;;8.50;;
16173;SDS011;14031;50.158;8.626;2022-08-19T04:24:13;10.00;;;8.65;;
16173;SDS011;14031;50.158;8.626;2022-08-19T04:26:43;9.48;;;8.60;;
16173;SDS011;14031;50.158;8.626;2022-08-19T04:29:13;9.13;;;8.52;;
16173;SDS011;14031;50.158;8.626;2022-08-19T04:31:44;9.55;;;8.60;;
16173;SDS011;14031;50.158;8.626;2022-08-19T04:34:12;13.82;;;9.35;;
16173;SDS011;14031;50.158;8.626;2022-08-19T04:36:41;9.35;;;8.63;;
16173;SDS011;14031;50.158;8.626;2022-08-19T04:39:10;9.48;;;8.27;;
16173;SDS011;14031;50.158;8.626;2022-08-19T04:41:39;8.75;;;8.15;;
16173;SDS011;14031;50.158;8.626;2022-08-19T04:44:25;9.07;;;8.27;;
16173;SDS011;14031;50.158;8.626;2022-08-19T04:46:55;8.93;;;8.23;;
16173;SDS011;14031;50.158;8.626;2022-08-19T04:49:23;9.15;;;8.25;;
16173;SDS011;14031;50.158;8.626;2022-08-19T04:51:51;9.30;;;8.40;;
16173;SDS011;14031;50.158;8.626;2022-08-19T04:54:20;9.55;;;8.65;;
16173;SDS011;14031;50.158;8.626;2022-08-19T04:56:51;9.00;;;8.13;;
16173;SDS011;14031;50.158;8.626;2022-08-19T04:59:18;9.30;;;8.35;;
16173;SDS011;14031;50.158;8.626;2022-08-19T05:01:48;8.07;;;7.40;;
16173;SDS011;14031;50.158;8.626;2022-08-19T05:04:16;7.43;;;6.88;;
16173;SDS011;14031;50.158;8.626;2022-08-19T05:06:45;8.93;;;8.25;;
16173;SDS011;14031;50.158;8.626;2022-08-19T05:09:13;8.57;;;7.85;;
16173;SDS011;14031;50.158;8.626;2022-08-19T05:11:43;8.13;;;7.43;;
16173;SDS011;14031;50.158;8.626;2022-08-19T05:14:10;9.57;;;8.68;;
16173;SDS011;14031;50.158;8.626;2022-08-19T05:16:38;8.55;;;7.65;;
16173;SDS011;14031;50.158;8.626;2022-08-19T05:19:07;8.80;;;8.07;;
16173;SDS011;14031;50.158;8.626;2022-08-19T05:21:52;10.10;;;7.95;;
16173;SDS011;14031;50.158;8.626;2022-08-19T05:24:37;8.00;;;7.35;;
16173;SDS011;14031;50.158;8.626;2022-08-19T05:27:04;10.07;;;7.60;;
16173;SDS011;14031;50.158;8.626;2022-08-19T05:29:31;8.73;;;7.93;;
16173;SDS011;14031;50.158;8.626;2022-08-19T05:32:00;7.97;;;7.47;;
16173;SDS011;14031;50.158;8.626;2022-08-19T05:34:32;8.00;;;7.43;;
16173;SDS011;14031;50.158;8.626;2022-08-19T05:37:01;7.75;;;7.25;;
16173;SDS011;14031;50.158;8.626;2022-08-19T05:39:30;7.45;;;6.82;;
16173;SDS011;14031;50.158;8.626;2022-08-19T05:41:59;6.95;;;6.55;;
16173;SDS011;14031;50.158;8.626;2022-08-19T05:44:32;7.03;;;6.60;;
16173;SDS011;14031;50.158;8.626;2022-08-19T05:47:02;7.82;;;6.68;;
16173;SDS011;14031;50.158;8.626;2022-08-19T05:49:35;8.30;;;7.53;;
16173;SDS011;14031;50.158;8.626;2022-08-19T05:52:03;6.70;;;6.20;;
16173;SDS011;14031;50.158;8.626;2022-08-19T05:54:31;6.82;;;6.22;;
16173;SDS011;14031;50.158;8.626;2022-08-19T05:57:02;6.80;;;6.40;;
16173;SDS011;14031;50.158;8.626;2022-08-19T05:59:29;6.60;;;6.05;;
16173;SDS011;14031;50.158;8.626;2022-08-19T06:01:56;6.05;;;5.55;;
16173;SDS011;14031;50.158;8.626;2022-08-19T06:04:25;6.60;;;5.90;;
16173;SDS011;14031;50.158;8.626;2022-08-19T06:06:54;6.18;;;5.78;;
16173;SDS011;14031;50.158;8.626;2022-08-19T06:09:21;6.28;;;5.72;;
16173;SDS011;14031;50.158;8.626;2022-08-19T06:11:49;7.65;;;5.65;;
16173;SDS011;14031;50.158;8.626;2022-08-19T06:14:20;5.40;;;5.00;;
16173;SDS011;14031;50.158;8.626;2022-08-19T06:16:49;5.70;;;5.20;;
16173;SDS011;14031;50.158;8.626;2022-08-19T06:19:19;5.43;;;4.93;;
16173;SDS011;14031;50.158;8.626;2022-08-19T06:21:49;5.28;;;4.97;;
16173;SDS011;14031;50.158;8.626;2022-08-19T06:24:19;5.40;;;5.00;;
16173;SDS011;14031;50.158;8.626;2022-08-19T06:26:49;5.78;;;5.30;;
16173;SDS011;14031;50.158;8.626;2022-08-19T06:29:19;5.20;;;4.70;;
16173;SDS011;14031;50.158;8.626;2022-08-19T06:31:48;5.28;;;4.75;;
16173;SDS011;14031;50.158;8.626;2022-08-19T06:34:18;5.32;;;5.03;;
16173;SDS011;14031;50.158;8.626;2022-08-19T06:36:46;5.03;;;4.68;;
16173;SDS011;14031;50.158;8.626;2022-08-19T06:39:15;4.75;;;4.40;;
16173;SDS011;14031;50.158;8.626;2022-08-19T06:41:46;7.55;;;5.47;;
16173;SDS011;14031;50.158;8.626;2022-08-19T06:44:16;5.13;;;4.75;;
16173;SDS011;14031;50.158;8.626;2022-08-19T06:46:43;4.88;;;4.63;;
16173;SDS011;14031;50.158;8.626;2022-08-19T06:49:10;5.45;;;4.60;;
16173;SDS011;14031;50.158;8.626;2022-08-19T06:51:39;4.85;;;4.43;;
16173;SDS011;14031;50.158;8.626;2022-08-19T06:54:06;4.40;;;4.10;;
16173;SDS011;14031;50.158;8.626;2022-08-19T06:56:33;4.80;;;4.60;;
16173;SDS011;14031;50.158;8.626;2022-08-19T06:59:03;5.18;;;4.45;;
16173;SDS011;14031;50.158;8.626;2022-08-19T07:01:33;5.35;;;4.82;;
16173;SDS011;14031;50.158;8.626;2022-08-19T07:04:03;4.15;;;3.95;;
16173;SDS011;14031;50.158;8.626;2022-08-19T07:06:31;4.28;;;3.97;;
16173;SDS011;14031;50.158;8.626;2022-08-19T07:08:58;4.55;;;4.25;;
16173;SDS011;14031;50.158;8.626;2022-08-19T07:11:24;5.18;;;4.68;;
16173;SDS011;14031;50.158;8.626;2022-08-19T07:13:52;4.85;;;4.47;;
16173;SDS011;14031;50.158;8.626;2022-08-19T07:16:21;3.90;;;3.70;;
16173;SDS011;14031;50.158;8.626;2022-08-19T07:18:49;5.78;;;5.47;;
16173;SDS011;14031;50.158;8.626;2022-08-19T07:21:17;4.68;;;4.38;;
16173;SDS011;14031;50.158;8.626;2022-08-19T07:23:46;4.15;;;3.80;;
16173;SDS011;14031;50.158;8.626;2022-08-19T07:26:15;4.28;;;4.00;;
16173;SDS011;14031;50.158;8.626;2022-08-19T07:28:45;4.30;;;3.90;;
16173;SDS011;14031;50.158;8.626;2022-08-19T07:31:13;4.28;;;4.00;;
16173;SDS011;14031;50.158;8.626;2022-08-19T07:33:45;3.97;;;3.67;;
16173;SDS011;14031;50.158;8.626;2022-08-19T07:36:13;5.65;;;4.00;;
16173;SDS011;14031;50.158;8.626;2022-08-19T07:38:42;4.28;;;3.97;;
16173;SDS011;14031;50.158;8.626;2022-08-19T07:41:12;4.10;;;3.78;;
16173;SDS011;14031;50.158;8.626;2022-08-19T07:43:40;4.45;;;4.05;;
16173;SDS011;14031;50.158;8.626;2022-08-19T07:46:09;4.53;;;4.22;;
16173;SDS011;14031;50.158;8.626;2022-08-19T07:48:38;4.70;;;4.40;;
16173;SDS011;14031;50.158;8.626;2022-08-19T07:51:08;4.13;;;3.92;;
16173;SDS011;14031;50.158;8.626;2022-08-19T07:53:36;4.45;;;4.20;;
16173;SDS011;14031;50.158;8.626;2022-08-19T07:56:04;4.78;;;4.32;;
16173;SDS011;14031;50.158;8.626;2022-08-19T07:58:32;4.80;;;4.50;;
16173;SDS011;14031;50.158;8.626;2022-08-19T08:01:01;5.65;;;5.07;;
16173;SDS011;14031;50.158;8.626;2022-08-19T08:03:29;4.97;;;4.47;;
16173;SDS011;14031;50.158;8.626;2022-08-19T08:06:15;4.80;;;4.53;;
16173;SDS011;14031;50.158;8.626;2022-08-19T08:09:00;5.05;;;4.55;;
16173;SDS011;14031;50.158;8.626;2022-08-19T08:11:47;5.25;;;4.95;;
16173;SDS011;14031;50.158;8.626;2022-08-19T08:14:16;4.90;;;4.50;;
16173;SDS011;14031;50.158;8.626;2022-08-19T08:16:46;5.45;;;4.68;;
16173;SDS011;14031;50.158;8.626;2022-08-19T08:19:15;5.38;;;5.10;;
16173;SDS011;14031;50.158;8.626;2022-08-19T08:21:45;4.95;;;4.65;;
16173;SDS011;14031;50.158;8.626;2022-08-19T08:24:12;4.53;;;4.22;;
16173;SDS011;14031;50.158;8.626;2022-08-19T08:26:39;4.60;;;4.30;;
16173;SDS011;14031;50.158;8.626;2022-08-19T08:29:08;5.40;;;5.10;;
16173;SDS011;14031;50.158;8.626;2022-08-19T08:31:36;4.90;;;4.60;;
16173;SDS011;14031;50.158;8.626;2022-08-19T08:34:03;5.20;;;4.65;;
16173;SDS011;14031;50.158;8.626;2022-08-19T08:36:30;5.85;;;5.30;;
16173;SDS011;14031;50.158;8.626;2022-08-19T08:39:00;4.75;;;4.45;;
16173;SDS011;14031;50.158;8.626;2022-08-19T08:41:28;5.25;;;4.65;;
16173;SDS011;14031;50.158;8.626;2022-08-19T08:44:03;4.60;;;4.38;;
16173;SDS011;14031;50.158;8.626;2022-08-19T08:46:34;5.45;;;4.85;;
16173;SDS011;14031;50.158;8.626;2022-08-19T08:49:06;5.07;;;4.68;;
16173;SDS011;14031;50.158;8.626;2022-08-19T08:51:44;5.07;;;4.60;;
16173;SDS011;14031;50.158;8.626;2022-08-19T08:54:18;4.78;;;4.40;;
16173;SDS011;14031;50.158;8.626;2022-08-19T08:56:46;4.57;;;4.28;;
16173;SDS011;14031;50.158;8.626;2022-08-19T08:59:19;4.05;;;3.85;;
16173;SDS011;14031;50.158;8.626;2022-08-19T09:01:48;6.90;;;4.10;;
16173;SDS011;14031;50.158;8.626;2022-08-19T09:04:15;4.43;;;4.22;;
16173;SDS011;14031;50.158;8.626;2022-08-19T09:06:44;5.10;;;4.60;;
16173;SDS011;14031;50.158;8.626;2022-08-19T09:09:24;6.95;;;4.18;;
16173;SDS011;14031;50.158;8.626;2022-08-19T09:12:00;5.50;;;5.07;;
16173;SDS011;14031;50.158;8.626;2022-08-19T09:14:36;4.50;;;4.20;;
16173;SDS011;14031;50.158;8.626;2022-08-19T09:17:10;4.53;;;4.25;;
16173;SDS011;14031;50.158;8.626;2022-08-19T09:19:46;4.03;;;3.83;;
16173;SDS011;14031;50.158;8.626;2022-08-19T09:22:18;4.25;;;4.05;;
16173;SDS011;14031;50.158;8.626;2022-08-19T09:24:49;4.70;;;4.30;;
16173;SDS011;14031;50.158;8.626;2022-08-19T09:27:20;4.45;;;4.15;;
16173;SDS011;14031;50.158;8.626;2022-08-19T09:29:48;4.78;;;4.32;;
16173;SDS011;14031;50.158;8.626;2022-08-19T09:32:15;4.90;;;4.60;;
16173;SDS011;14031;50.158;8.626;2022-08-19T09:34:43;4.60;;;4.05;;
16173;SDS011;14031;50.158;8.626;2022-08-19T09:37:10;4.00;;;3.80;;
16173;SDS011;14031;50.158;8.626;2022-08-19T09:39:39;5.07;;;4.88;;
16173;SDS011;14031;50.158;8.626;2022-08-19T09:42:09;4.47;;;4.28;;
16173;SDS011;14031;50.158;8.626;2022-08-19T09:44:38;4.20;;;4.00;;
16173;SDS011;14031;50.158;8.626;2022-08-19T09:47:05;4.20;;;4.00;;
16173;SDS011;14031;50.158;8.626;2022-08-19T09:49:33;4.22;;;4.03;;
16173;SDS011;14031;50.158;8.626;2022-08-19T09:52:00;5.00;;;4.40;;
16173;SDS011;14031;50.158;8.626;2022-08-19T09:54:27;4.60;;;4.30;;
16173;SDS011;14031;50.158;8.626;2022-08-19T09:56:54;4.70;;;4.40;;
16173;SDS011;14031;50.158;8.626;2022-08-19T09:59:23;4.82;;;4.53;;
16173;SDS011;14031;50.158;8.626;2022-08-19T10:01:50;4.80;;;4.60;;
16173;SDS011;14031;50.158;8.626;2022-08-19T10:04:18;5.30;;;5.03;;
16173;SDS011;14031;50.158;8.626;2022-08-19T10:06:46;6.20;;;5.82;;
16173;SDS011;14031;50.158;8.626;2022-08-19T10:09:14;5.60;;;5.10;;
16173;SDS011;14031;50.158;8.626;2022-08-19T10:11:44;6.03;;;5.63;;
16173;SDS011;14031;50.158;8.626;2022-08-19T10:14:13;5.47;;;4.97;;
16173;SDS011;14031;50.158;8.626;2022-08-19T10:16:43;5.72;;;5.35;;
16173;SDS011;14031;50.158;8.626;2022-08-19T10:19:09;5.70;;;5.28;;
16173;SDS011;14031;50.158;8.626;2022-08-19T10:21:36;5.88;;;5.38;;
16173;SDS011;14031;50.158;8.626;2022-08-19T10:24:05;6.78;;;5.95;;
16173;SDS011;14031;50.158;8.626;2022-08-19T10:26:33;6.10;;;5.60;;
16173;SDS011;14031;50.158;8.626;2022-08-19T10:29:02;7.15;;;6.65;;
16173;SDS011;14031;50.158;8.626;2022-08-19T10:31:31;6.68;;;6.22;;
16173;SDS011;14031;50.158;8.626;2022-08-19T10:34:00;7.00;;;6.47;;
16173;SDS011;14031;50.158;8.626;2022-08-19T10:36:28;6.57;;;6.28;;
16173;SDS011;14031;50.158;8.626;2022-08-19T10:38:57;7.22;;;6.63;;
16173;SDS011;14031;50.158;8.626;2022-08-19T10:41:27;6.80;;;6.43;;
16173;SDS011;14031;50.158;8.626;2022-08-19T10:43:56;6.45;;;5.95;;
16173;SDS011;14031;50.158;8.626;2022-08-19T10:46:25;9.38;;;7.25;;
16173;SDS011;14031;50.158;8.626;2022-08-19T10:48:54;8.18;;;7.78;;
16173;SDS011;14031;50.158;8.626;2022-08-19T10:51:22;8.15;;;7.65;;
16173;SDS011;14031;50.158;8.626;2022-08-19T10:54:07;7.65;;;7.25;;
16173;SDS011;14031;50.158;8.626;2022-08-19T10:56:34;8.10;;;7.70;;
16173;SDS011;14031;50.158;8.626;2022-08-19T10:59:21;8.73;;;7.85;;
16173;SDS011;14031;50.158;8.626;2022-08-19T11:01:49;8.00;;;7.50;;
16173;SDS011;14031;50.158;8.626;2022-08-19T11:04:17;8.80;;;8.15;;
16173;SDS011;14031;50.158;8.626;2022-08-19T11:06:52;8.32;;;7.93;;
16173;SDS011;14031;50.158;8.626;2022-08-19T11:09:21;7.82;;;7.22;;
16173;SDS011;14031;50.158;8.626;2022-08-19T11:11:50;8.85;;;8.00;;
16173;SDS011;14031;50.158;8.626;2022-08-19T11:14:18;8.15;;;7.47;;
16173;SDS011;14031;50.158;8.626;2022-08-19T11:16:47;7.93;;;7.50;;
16173;SDS011;14031;50.158;8.626;2022-08-19T11:19:15;9.40;;;8.75;;
16173;SDS011;14031;50.158;8.626;2022-08-19T11:21:44;8.57;;;7.97;;
16173;SDS011;14031;50.158;8.626;2022-08-19T11:24:15;8.15;;;7.47;;
16173;SDS011;14031;50.158;8.626;2022-08-19T11:26:45;6.97;;;6.68;;
16173;SDS011;14031;50.158;8.626;2022-08-19T11:29:14;8.38;;;7.97;;
16173;SDS011;14031;50.158;8.626;2022-08-19T11:31:43;8.13;;;7.53;;
16173;SDS011;14031;50.158;8.626;2022-08-19T11:34:13;8.10;;;7.60;;
16173;SDS011;14031;50.158;8.626;2022-08-19T11:36:42;7.28;;;6.72;;
16173;SDS011;14031;50.158;8.626;2022-08-19T11:39:11;7.97;;;7.22;;
16173;SDS011;14031;50.158;8.626;2022-08-19T11:41:42;7.68;;;7.18;;
16173;SDS011;14031;50.158;8.626;2022-08-19T11:44:09;6.95;;;6.65;;
16173;SDS011;14031;50.158;8.626;2022-08-19T11:46:36;8.25;;;7.55;;
16173;SDS011;14031;50.158;8.626;2022-08-19T11:49:04;7.40;;;6.78;;
16173;SDS011;14031;50.158;8.626;2022-08-19T11:51:32;6.68;;;6.35;;
16173;SDS011;14031;50.158;8.626;2022-08-19T11:53:59;6.93;;;6.50;;
16173;SDS011;14031;50.158;8.626;2022-08-19T11:56:28;7.30;;;6.80;;
16173;SDS011;14031;50.158;8.626;2022-08-19T11:58:55;6.82;;;6.38;;
16173;SDS011;14031;50.158;8.626;2022-08-19T12:01:23;7.55;;;7.03;;
16173;SDS011;14031;50.158;8.626;2022-08-19T12:03:51;7.45;;;6.70;;
16173;SDS011;14031;50.158;8.626;2022-08-19T12:06:21;6.88;;;6.40;;
16173;SDS011;14031;50.158;8.626;2022-08-19T12:08:52;5.93;;;5.63;;
16173;SDS011;14031;50.158;8.626;2022-08-19T12:11:20;6.88;;;6.47;;
16173;SDS011;14031;50.158;8.626;2022-08-19T12:13:48;7.35;;;6.63;;
16173;SDS011;14031;50.158;8.626;2022-08-19T12:16:16;7.15;;;6.63;;
16173;SDS011;14031;50.158;8.626;2022-08-19T12:18:45;7.22;;;6.63;;
16173;SDS011;14031;50.158;8.626;2022-08-19T12:21:13;7.78;;;7.28;;
16173;SDS011;14031;50.158;8.626;2022-08-19T12:23:40;7.32;;;6.93;;
16173;SDS011;14031;50.158;8.626;2022-08-19T12:26:10;6.97;;;6.65;;
16173;SDS011;14031;50.158;8.626;2022-08-19T12:28:37;7.03;;;6.70;;
16173;SDS011;14031;50.158;8.626;2022-08-19T12:31:07;6.50;;;6.10;;
16173;SDS011;14031;50.158;8.626;2022-08-19T12:33:37;7.15;;;6.75;;
16173;SDS011;14031;50.158;8.626;2022-08-19T12:36:06;7.45;;;6.95;;
16173;SDS011;14031;50.158;8.626;2022-08-19T12:38:36;7.40;;;6.95;;
16173;SDS011;14031;50.158;8.626;2022-08-19T12:41:05;8.70;;;8.30;;
16173;SDS011;14031;50.158;8.626;2022-08-19T12:43:32;6.45;;;6.13;;
16173;SDS011;14031;50.158;8.626;2022-08-19T12:46:00;7.18;;;6.68;;
16173;SDS011;14031;50.158;8.626;2022-08-19T12:48:30;7.65;;;6.93;;
16173;SDS011;14031;50.158;8.626;2022-08-19T12:50:57;7.20;;;6.72;;
16173;SDS011;14031;50.158;8.626;2022-08-19T12:53:24;7.22;;;6.53;;
16173;SDS011;14031;50.158;8.626;2022-08-19T12:55:54;6.93;;;6.20;;
16173;SDS011;14031;50.158;8.626;2022-08-19T12:58:22;5.95;;;5.57;;
16173;SDS011;14031;50.158;8.626;2022-08-19T13:00:49;5.15;;;4.85;;
16173;SDS011;14031;50.158;8.626;2022-08-19T13:03:16;5.20;;;5.00;;
16173;SDS011;14031;50.158;8.626;2022-08-19T13:05:44;5.70;;;5.40;;
16173;SDS011;14031;50.158;8.626;2022-08-19T13:08:11;5.45;;;4.90;;
16173;SDS011;14031;50.158;8.626;2022-08-19T13:10:38;4.95;;;4.75;;
16173;SDS011;14031;50.158;8.626;2022-08-19T13:13:06;5.15;;;4.95;;
16173;SDS011;14031;50.158;8.626;2022-08-19T13:15:35;5.05;;;4.75;;
16173;SDS011;14031;50.158;8.626;2022-08-19T13:18:05;4.30;;;4.10;;
16173;SDS011;14031;50.158;8.626;2022-08-19T13:20:34;5.10;;;4.70;;
16173;SDS011;14031;50.158;8.626;2022-08-19T13:23:03;5.35;;;5.05;;
16173;SDS011;14031;50.158;8.626;2022-08-19T13:25:33;4.57;;;4.18;;
16173;SDS011;14031;50.158;8.626;2022-08-19T13:28:04;4.32;;;3.97;;
16173;SDS011;14031;50.158;8.626;2022-08-19T13:30:32;4.95;;;4.57;;
16173;SDS011;14031;50.158;8.626;2022-08-19T13:33:16;4.13;;;3.92;;
16173;SDS011;14031;50.158;8.626;2022-08-19T13:35:45;4.15;;;3.90;;
16173;SDS011;14031;50.158;8.626;2022-08-19T13:38:16;4.15;;;3.95;;
16173;SDS011;14031;50.158;8.626;2022-08-19T13:40:45;4.20;;;3.90;;
16173;SDS011;14031;50.158;8.626;2022-08-19T13:43:14;3.67;;;3.58;;
16173;SDS011;14031;50.158;8.626;2022-08-19T13:45:42;3.70;;;3.50;;
16173;SDS011;14031;50.158;8.626;2022-08-19T13:48:09;3.88;;;3.60;;
16173;SDS011;14031;50.158;8.626;2022-08-19T13:50:43;3.33;;;3.00;;
16173;SDS011;14031;50.158;8.626;2022-08-19T13:53:12;3.30;;;3.20;;
16173;SDS011;14031;50.158;8.626;2022-08-19T13:55:40;3.70;;;3.50;;
16173;SDS011;14031;50.158;8.626;2022-08-19T13:58:09;3.33;;;3.10;;
16173;SDS011;14031;50.158;8.626;2022-08-19T14:00:41;4.35;;;3.95;;
16173;SDS011;14031;50.158;8.626;2022-08-19T14:03:10;3.55;;;3.25;;
16173;SDS011;14031;50.158;8.626;2022-08-19T14:05:38;3.50;;;3.40;;
16173;SDS011;14031;50.158;8.626;2022-08-19T14:08:05;3.45;;;3.35;;
16173;SDS011;14031;50.158;8.626;2022-08-19T14:10:32;3.13;;;2.88;;
16173;SDS011;14031;50.158;8.626;2022-08-19T14:13:01;3.50;;;3.30;;
16173;SDS011;14031;50.158;8.626;2022-08-19T14:15:30;3.50;;;3.40;;
16173;SDS011;14031;50.158;8.626;2022-08-19T14:17:57;3.10;;;2.90;;
16173;SDS011;14031;50.158;8.626;2022-08-19T14:20:24;3.33;;;3.03;;
16173;SDS011;14031;50.158;8.626;2022-08-19T14:22:52;3.45;;;3.25;;
16173;SDS011;14031;50.158;8.626;2022-08-19T14:25:21;3.88;;;2.85;;
16173;SDS011;14031;50.158;8.626;2022-08-19T14:27:49;4.60;;;3.55;;
16173;SDS011;14031;50.158;8.626;2022-08-19T14:30:21;3.58;;;3.05;;
16173;SDS011;14031;50.158;8.626;2022-08-19T14:32:50;3.10;;;3.00;;
16173;SDS011;14031;50.158;8.626;2022-08-19T14:35:17;3.78;;;3.13;;
16173;SDS011;14031;50.158;8.626;2022-08-19T14:37:52;3.10;;;3.00;;
16173;SDS011;14031;50.158;8.626;2022-08-19T14:40:21;3.50;;;3.20;;
16173;SDS011;14031;50.158;8.626;2022-08-19T14:42:50;3.30;;;3.10;;
16173;SDS011;14031;50.158;8.626;2022-08-19T14:45:21;3.17;;;3.00;;
16173;SDS011;14031;50.158;8.626;2022-08-19T14:47:51;3.63;;;3.53;;
16173;SDS011;14031;50.158;8.626;2022-08-19T14:50:20;3.30;;;2.97;;
16173;SDS011;14031;50.158;8.626;2022-08-19T14:52:48;3.35;;;3.15;;
16173;SDS011;14031;50.158;8.626;2022-08-19T14:55:25;3.30;;;3.03;;